sensor_id;sensor_type;location;lat;lon;timestamp;temperature;humidity
18365;DHT22;9309;52.126;11.616;2022-10-29T00:02:18;14.90;81.90
18365;DHT22;9309;52.126;11.616;2022-10-29T00:04:44;14.70;82.70
18365;DHT22;9309;52.126;11.616;2022-10-29T00:07:11;14.70;82.80
18365;DHT22;9309;52.126;11.616;2022-10-29T00:09:38;14.90;81.70
18365;DHT22;9309;52.126;11.616;2022-10-29T00:12:06;14.90;81.60
18365;DHT22;9309;52.126;11.616;2022-10-29T00:14:33;14.80;82.90
18365;DHT22;9309;52.126;11.616;2022-10-29T00:17:02;14.80;83.00
18365;DHT22;9309;52.126;11.616;2022-10-29T00:19:29;14.80;82.20
18365;DHT22;9309;52.126;11.616;2022-10-29T00:21:55;15.00;81.20
18365;DHT22;9309;52.126;11.616;2022-10-29T00:24:22;15.00;80.60
18365;DHT22;9309;52.126;11.616;2022-10-29T00:26:49;15.00;81.20
18365;DHT22;9309;52.126;11.616;2022-10-29T00:29:16;15.00;81.30
18365;DHT22;9309;52.126;11.616;2022-10-29T00:31:43;15.00;81.10
18365;DHT22;9309;52.126;11.616;2022-10-29T00:34:11;15.10;80.70
18365;DHT22;9309;52.126;11.616;2022-10-29T00:36:38;15.00;80.80
18365;DHT22;9309;52.126;11.616;2022-10-29T00:39:05;14.80;82.20
18365;DHT22;9309;52.126;11.616;2022-10-29T00:41:31;14.80;82.10
18365;DHT22;9309;52.126;11.616;2022-10-29T00:44:27;14.80;82.30
18365;DHT22;9309;52.126;11.616;2022-10-29T00:46:57;14.80;82.90
18365;DHT22;9309;52.126;11.616;2022-10-29T00:49:30;14.80;82.80
18365;DHT22;9309;52.126;11.616;2022-10-29T00:51:57;14.70;82.70
18365;DHT22;9309;52.126;11.616;2022-10-29T00:54:27;14.60;84.20
18365;DHT22;9309;52.126;11.616;2022-10-29T00:56:58;14.60;83.40
18365;DHT22;9309;52.126;11.616;2022-10-29T00:59:26;14.30;84.80
18365;DHT22;9309;52.126;11.616;2022-10-29T01:01:53;14.40;84.80
18365;DHT22;9309;52.126;11.616;2022-10-29T01:04:21;14.40;84.50
18365;DHT22;9309;52.126;11.616;2022-10-29T01:06:51;14.50;84.00
18365;DHT22;9309;52.126;11.616;2022-10-29T01:09:17;14.50;83.80
18365;DHT22;9309;52.126;11.616;2022-10-29T01:11:50;14.50;83.70
18365;DHT22;9309;52.126;11.616;2022-10-29T01:14:29;14.30;84.70
18365;DHT22;9309;52.126;11.616;2022-10-29T01:17:04;14.10;86.20
18365;DHT22;9309;52.126;11.616;2022-10-29T01:19:51;14.20;85.10
18365;DHT22;9309;52.126;11.616;2022-10-29T01:22:24;14.10;85.60
18365;DHT22;9309;52.126;11.616;2022-10-29T01:25:17;14.20;85.80
18365;DHT22;9309;52.126;11.616;2022-10-29T01:27:57;14.20;85.50
18365;DHT22;9309;52.126;11.616;2022-10-29T01:33:22;14.20;85.10
18365;DHT22;9309;52.126;11.616;2022-10-29T01:35:57;14.30;84.70
18365;DHT22;9309;52.126;11.616;2022-10-29T01:38:32;14.30;84.60
18365;DHT22;9309;52.126;11.616;2022-10-29T01:41:06;14.40;84.20
18365;DHT22;9309;52.126;11.616;2022-10-29T01:43:37;14.40;84.20
18365;DHT22;9309;52.126;11.616;2022-10-29T01:46:11;14.30;84.20
18365;DHT22;9309;52.126;11.616;2022-10-29T01:48:43;14.30;84.50
18365;DHT22;9309;52.126;11.616;2022-10-29T01:51:15;14.20;84.80
18365;DHT22;9309;52.126;11.616;2022-10-29T01:53:44;14.30;84.70
18365;DHT22;9309;52.126;11.616;2022-10-29T01:56:11;14.40;84.20
18365;DHT22;9309;52.126;11.616;2022-10-29T01:58:39;14.40;84.10
18365;DHT22;9309;52.126;11.616;2022-10-29T02:01:21;14.40;83.70
18365;DHT22;9309;52.126;11.616;2022-10-29T02:03:59;14.30;84.30
18365;DHT22;9309;52.126;11.616;2022-10-29T02:06:35;14.30;84.60
18365;DHT22;9309;52.126;11.616;2022-10-29T02:09:09;14.10;86.30
18365;DHT22;9309;52.126;11.616;2022-10-29T02:14:20;14.00;86.80
18365;DHT22;9309;52.126;11.616;2022-10-29T02:16:49;14.20;86.40
18365;DHT22;9309;52.126;11.616;2022-10-29T02:19:17;14.50;84.70
18365;DHT22;9309;52.126;11.616;2022-10-29T02:21:44;14.40;84.60
18365;DHT22;9309;52.126;11.616;2022-10-29T02:24:11;14.30;85.70
18365;DHT22;9309;52.126;11.616;2022-10-29T02:26:38;14.40;85.40
18365;DHT22;9309;52.126;11.616;2022-10-29T02:29:05;14.60;84.60
18365;DHT22;9309;52.126;11.616;2022-10-29T02:31:31;14.80;83.60
18365;DHT22;9309;52.126;11.616;2022-10-29T02:34:00;14.80;83.70
18365;DHT22;9309;52.126;11.616;2022-10-29T02:36:29;14.90;83.60
18365;DHT22;9309;52.126;11.616;2022-10-29T02:38:55;14.80;84.00
18365;DHT22;9309;52.126;11.616;2022-10-29T02:41:22;14.80;84.00
18365;DHT22;9309;52.126;11.616;2022-10-29T02:43:49;14.60;85.00
18365;DHT22;9309;52.126;11.616;2022-10-29T02:46:18;14.70;84.40
18365;DHT22;9309;52.126;11.616;2022-10-29T02:48:45;14.80;84.00
18365;DHT22;9309;52.126;11.616;2022-10-29T02:51:12;14.80;83.80
18365;DHT22;9309;52.126;11.616;2022-10-29T02:53:40;14.80;83.70
18365;DHT22;9309;52.126;11.616;2022-10-29T02:56:08;14.80;83.60
18365;DHT22;9309;52.126;11.616;2022-10-29T02:58:35;14.90;83.60
18365;DHT22;9309;52.126;11.616;2022-10-29T03:01:03;14.80;83.50
18365;DHT22;9309;52.126;11.616;2022-10-29T03:03:31;14.80;83.50
18365;DHT22;9309;52.126;11.616;2022-10-29T03:05:58;14.80;83.40
18365;DHT22;9309;52.126;11.616;2022-10-29T03:08:25;14.60;84.40
18365;DHT22;9309;52.126;11.616;2022-10-29T03:10:53;14.20;86.40
18365;DHT22;9309;52.126;11.616;2022-10-29T03:13:20;14.30;86.20
18365;DHT22;9309;52.126;11.616;2022-10-29T03:15:47;14.20;87.20
18365;DHT22;9309;52.126;11.616;2022-10-29T03:18:14;13.90;88.50
18365;DHT22;9309;52.126;11.616;2022-10-29T03:20:41;13.80;89.20
18365;DHT22;9309;52.126;11.616;2022-10-29T03:23:10;13.90;89.00
18365;DHT22;9309;52.126;11.616;2022-10-29T03:25:36;13.80;89.40
18365;DHT22;9309;52.126;11.616;2022-10-29T03:28:05;14.10;88.20
18365;DHT22;9309;52.126;11.616;2022-10-29T03:30:32;14.20;87.60
18365;DHT22;9309;52.126;11.616;2022-10-29T03:32:59;14.30;87.10
18365;DHT22;9309;52.126;11.616;2022-10-29T03:35:26;14.50;86.10
18365;DHT22;9309;52.126;11.616;2022-10-29T03:37:52;14.60;85.60
18365;DHT22;9309;52.126;11.616;2022-10-29T03:40:19;14.60;85.50
18365;DHT22;9309;52.126;11.616;2022-10-29T03:42:46;14.60;85.30
18365;DHT22;9309;52.126;11.616;2022-10-29T03:45:15;14.50;85.90
18365;DHT22;9309;52.126;11.616;2022-10-29T03:47:42;14.20;87.40
18365;DHT22;9309;52.126;11.616;2022-10-29T03:50:09;14.30;87.30
18365;DHT22;9309;52.126;11.616;2022-10-29T03:52:36;14.40;86.30
18365;DHT22;9309;52.126;11.616;2022-10-29T03:55:03;14.50;86.40
18365;DHT22;9309;52.126;11.616;2022-10-29T03:57:31;14.40;86.10
18365;DHT22;9309;52.126;11.616;2022-10-29T03:59:58;14.10;87.90
18365;DHT22;9309;52.126;11.616;2022-10-29T04:02:26;13.90;88.80
18365;DHT22;9309;52.126;11.616;2022-10-29T04:04:53;13.80;89.60
18365;DHT22;9309;52.126;11.616;2022-10-29T04:07:20;14.20;87.80
18365;DHT22;9309;52.126;11.616;2022-10-29T04:09:47;14.40;86.40
18365;DHT22;9309;52.126;11.616;2022-10-29T04:12:14;14.30;86.70
18365;DHT22;9309;52.126;11.616;2022-10-29T04:14:41;14.30;86.70
18365;DHT22;9309;52.126;11.616;2022-10-29T04:17:08;14.30;86.70
18365;DHT22;9309;52.126;11.616;2022-10-29T04:19:38;14.40;86.40
18365;DHT22;9309;52.126;11.616;2022-10-29T04:22:05;14.10;88.10
18365;DHT22;9309;52.126;11.616;2022-10-29T04:24:31;13.90;89.10
18365;DHT22;9309;52.126;11.616;2022-10-29T04:26:58;13.80;89.80
18365;DHT22;9309;52.126;11.616;2022-10-29T04:29:25;13.90;89.20
18365;DHT22;9309;52.126;11.616;2022-10-29T04:31:52;14.10;88.10
18365;DHT22;9309;52.126;11.616;2022-10-29T04:34:19;14.20;87.00
18365;DHT22;9309;52.126;11.616;2022-10-29T04:36:47;14.10;87.20
18365;DHT22;9309;52.126;11.616;2022-10-29T04:39:14;14.10;87.10
18365;DHT22;9309;52.126;11.616;2022-10-29T04:41:41;14.10;87.10
18365;DHT22;9309;52.126;11.616;2022-10-29T04:44:08;14.00;87.40
18365;DHT22;9309;52.126;11.616;2022-10-29T04:46:34;14.10;87.20
18365;DHT22;9309;52.126;11.616;2022-10-29T04:49:01;14.10;86.50
18365;DHT22;9309;52.126;11.616;2022-10-29T04:51:28;14.00;86.70
18365;DHT22;9309;52.126;11.616;2022-10-29T04:53:56;13.70;88.50
18365;DHT22;9309;52.126;11.616;2022-10-29T04:56:23;13.80;88.40
18365;DHT22;9309;52.126;11.616;2022-10-29T04:58:50;13.90;87.70
18365;DHT22;9309;52.126;11.616;2022-10-29T05:01:18;14.00;87.10
18365;DHT22;9309;52.126;11.616;2022-10-29T05:03:45;13.70;88.30
18365;DHT22;9309;52.126;11.616;2022-10-29T05:06:11;13.70;88.90
18365;DHT22;9309;52.126;11.616;2022-10-29T05:08:38;13.80;88.30
18365;DHT22;9309;52.126;11.616;2022-10-29T05:11:07;13.70;88.90
18365;DHT22;9309;52.126;11.616;2022-10-29T05:13:34;13.80;88.10
18365;DHT22;9309;52.126;11.616;2022-10-29T05:16:00;13.70;88.20
18365;DHT22;9309;52.126;11.616;2022-10-29T05:18:27;13.70;88.80
18365;DHT22;9309;52.126;11.616;2022-10-29T05:20:56;13.70;88.80
18365;DHT22;9309;52.126;11.616;2022-10-29T05:23:23;13.80;88.50
18365;DHT22;9309;52.126;11.616;2022-10-29T05:25:50;13.90;88.10
18365;DHT22;9309;52.126;11.616;2022-10-29T05:28:20;14.00;88.00
18365;DHT22;9309;52.126;11.616;2022-10-29T05:30:48;14.00;87.90
18365;DHT22;9309;52.126;11.616;2022-10-29T05:33:17;14.10;87.80
18365;DHT22;9309;52.126;11.616;2022-10-29T05:35:44;14.00;87.20
18365;DHT22;9309;52.126;11.616;2022-10-29T05:38:12;14.00;87.50
18365;DHT22;9309;52.126;11.616;2022-10-29T05:40:40;14.00;88.10
18365;DHT22;9309;52.126;11.616;2022-10-29T05:43:09;14.10;87.70
18365;DHT22;9309;52.126;11.616;2022-10-29T05:45:37;14.30;86.40
18365;DHT22;9309;52.126;11.616;2022-10-29T05:48:05;14.30;86.40
18365;DHT22;9309;52.126;11.616;2022-10-29T05:50:32;14.40;85.50
18365;DHT22;9309;52.126;11.616;2022-10-29T05:53:01;14.40;85.80
18365;DHT22;9309;52.126;11.616;2022-10-29T05:55:29;14.30;86.10
18365;DHT22;9309;52.126;11.616;2022-10-29T05:57:56;14.40;86.10
18365;DHT22;9309;52.126;11.616;2022-10-29T06:00:23;14.30;86.10
18365;DHT22;9309;52.126;11.616;2022-10-29T06:02:52;14.20;86.50
18365;DHT22;9309;52.126;11.616;2022-10-29T06:05:19;14.10;86.60
18365;DHT22;9309;52.126;11.616;2022-10-29T06:07:47;14.20;86.70
18365;DHT22;9309;52.126;11.616;2022-10-29T06:10:18;14.10;86.70
18365;DHT22;9309;52.126;11.616;2022-10-29T06:12:45;14.10;86.70
18365;DHT22;9309;52.126;11.616;2022-10-29T06:15:11;14.10;86.80
18365;DHT22;9309;52.126;11.616;2022-10-29T06:17:39;14.20;86.60
18365;DHT22;9309;52.126;11.616;2022-10-29T06:20:09;14.20;86.50
18365;DHT22;9309;52.126;11.616;2022-10-29T06:22:36;14.20;86.90
18365;DHT22;9309;52.126;11.616;2022-10-29T06:25:04;14.20;86.40
18365;DHT22;9309;52.126;11.616;2022-10-29T06:27:31;14.10;87.20
18365;DHT22;9309;52.126;11.616;2022-10-29T06:29:57;14.20;87.00
18365;DHT22;9309;52.126;11.616;2022-10-29T06:32:24;14.30;86.50
18365;DHT22;9309;52.126;11.616;2022-10-29T06:34:51;14.50;86.10
18365;DHT22;9309;52.126;11.616;2022-10-29T06:37:19;14.50;85.80
18365;DHT22;9309;52.126;11.616;2022-10-29T06:39:46;14.60;85.50
18365;DHT22;9309;52.126;11.616;2022-10-29T06:42:12;14.70;85.60
18365;DHT22;9309;52.126;11.616;2022-10-29T06:44:39;14.70;85.40
18365;DHT22;9309;52.126;11.616;2022-10-29T06:47:06;14.80;85.20
18365;DHT22;9309;52.126;11.616;2022-10-29T06:49:33;14.80;84.90
18365;DHT22;9309;52.126;11.616;2022-10-29T06:51:59;14.80;84.40
18365;DHT22;9309;52.126;11.616;2022-10-29T06:54:27;14.90;85.10
18365;DHT22;9309;52.126;11.616;2022-10-29T06:56:54;15.00;84.50
18365;DHT22;9309;52.126;11.616;2022-10-29T06:59:21;14.90;84.30
18365;DHT22;9309;52.126;11.616;2022-10-29T07:01:48;14.90;85.10
18365;DHT22;9309;52.126;11.616;2022-10-29T07:04:15;15.10;84.00
18365;DHT22;9309;52.126;11.616;2022-10-29T07:06:42;15.30;83.70
18365;DHT22;9309;52.126;11.616;2022-10-29T07:09:09;15.20;83.30
18365;DHT22;9309;52.126;11.616;2022-10-29T07:11:38;15.20;83.20
18365;DHT22;9309;52.126;11.616;2022-10-29T07:14:04;15.30;82.70
18365;DHT22;9309;52.126;11.616;2022-10-29T07:16:33;15.40;82.30
18365;DHT22;9309;52.126;11.616;2022-10-29T07:19:00;15.30;82.20
18365;DHT22;9309;52.126;11.616;2022-10-29T07:21:26;15.40;82.00
18365;DHT22;9309;52.126;11.616;2022-10-29T07:23:53;15.40;82.50
18365;DHT22;9309;52.126;11.616;2022-10-29T07:26:20;15.50;81.70
18365;DHT22;9309;52.126;11.616;2022-10-29T07:28:48;15.60;81.20
18365;DHT22;9309;52.126;11.616;2022-10-29T07:31:15;15.70;81.10
18365;DHT22;9309;52.126;11.616;2022-10-29T07:33:41;15.80;81.10
18365;DHT22;9309;52.126;11.616;2022-10-29T07:36:08;15.90;80.40
18365;DHT22;9309;52.126;11.616;2022-10-29T07:38:35;16.00;80.50
18365;DHT22;9309;52.126;11.616;2022-10-29T07:41:02;16.30;79.40
18365;DHT22;9309;52.126;11.616;2022-10-29T07:43:29;16.50;78.20
18365;DHT22;9309;52.126;11.616;2022-10-29T07:45:57;16.80;78.20
18365;DHT22;9309;52.126;11.616;2022-10-29T07:48:23;17.10;77.40
18365;DHT22;9309;52.126;11.616;2022-10-29T07:50:50;17.40;76.60
18365;DHT22;9309;52.126;11.616;2022-10-29T07:53:17;17.70;75.00
18365;DHT22;9309;52.126;11.616;2022-10-29T07:55:47;17.70;74.80
18365;DHT22;9309;52.126;11.616;2022-10-29T07:58:17;17.70;74.60
18365;DHT22;9309;52.126;11.616;2022-10-29T08:00:43;17.60;74.50
18365;DHT22;9309;52.126;11.616;2022-10-29T08:03:12;17.60;74.60
18365;DHT22;9309;52.126;11.616;2022-10-29T08:05:40;17.50;74.30
18365;DHT22;9309;52.126;11.616;2022-10-29T08:08:07;17.40;74.50
18365;DHT22;9309;52.126;11.616;2022-10-29T08:10:34;17.50;74.70
18365;DHT22;9309;52.126;11.616;2022-10-29T08:13:03;17.60;74.50
18365;DHT22;9309;52.126;11.616;2022-10-29T08:15:32;17.70;74.20
18365;DHT22;9309;52.126;11.616;2022-10-29T08:17:59;17.70;74.10
18365;DHT22;9309;52.126;11.616;2022-10-29T08:20:28;17.80;74.00
18365;DHT22;9309;52.126;11.616;2022-10-29T08:22:57;17.90;73.70
18365;DHT22;9309;52.126;11.616;2022-10-29T08:25:24;17.90;73.50
18365;DHT22;9309;52.126;11.616;2022-10-29T08:27:58;18.00;73.40
18365;DHT22;9309;52.126;11.616;2022-10-29T08:30:25;18.10;73.30
18365;DHT22;9309;52.126;11.616;2022-10-29T08:32:52;18.20;73.00
18365;DHT22;9309;52.126;11.616;2022-10-29T08:35:18;18.50;72.30
18365;DHT22;9309;52.126;11.616;2022-10-29T08:37:47;18.70;71.80
18365;DHT22;9309;52.126;11.616;2022-10-29T08:40:21;18.80;71.30
18365;DHT22;9309;52.126;11.616;2022-10-29T08:45:43;19.00;70.40
18365;DHT22;9309;52.126;11.616;2022-10-29T08:48:21;19.00;70.40
18365;DHT22;9309;52.126;11.616;2022-10-29T08:50:52;19.00;70.40
18365;DHT22;9309;52.126;11.616;2022-10-29T08:53:29;19.00;70.40
18365;DHT22;9309;52.126;11.616;2022-10-29T08:55:57;18.90;70.30
18365;DHT22;9309;52.126;11.616;2022-10-29T08:58:31;18.70;70.10
18365;DHT22;9309;52.126;11.616;2022-10-29T09:00:58;18.70;70.30
18365;DHT22;9309;52.126;11.616;2022-10-29T09:03:26;18.80;70.00
18365;DHT22;9309;52.126;11.616;2022-10-29T09:06:02;18.50;71.00
18365;DHT22;9309;52.126;11.616;2022-10-29T09:08:45;18.50;71.30
18365;DHT22;9309;52.126;11.616;2022-10-29T09:11:30;18.60;71.20
18365;DHT22;9309;52.126;11.616;2022-10-29T09:14:15;18.70;71.00
18365;DHT22;9309;52.126;11.616;2022-10-29T09:16:50;18.80;71.10
18365;DHT22;9309;52.126;11.616;2022-10-29T09:19:31;18.70;70.50
18365;DHT22;9309;52.126;11.616;2022-10-29T09:22:09;18.70;71.20
18365;DHT22;9309;52.126;11.616;2022-10-29T09:24:48;18.70;70.90
18365;DHT22;9309;52.126;11.616;2022-10-29T09:27:20;18.90;70.60
18365;DHT22;9309;52.126;11.616;2022-10-29T09:29:59;19.10;69.80
18365;DHT22;9309;52.126;11.616;2022-10-29T09:32:32;19.30;68.60
18365;DHT22;9309;52.126;11.616;2022-10-29T09:35:01;19.30;68.80
18365;DHT22;9309;52.126;11.616;2022-10-29T09:37:35;19.30;68.50
18365;DHT22;9309;52.126;11.616;2022-10-29T09:40:16;19.40;68.10
18365;DHT22;9309;52.126;11.616;2022-10-29T09:42:45;19.50;68.00
18365;DHT22;9309;52.126;11.616;2022-10-29T09:45:15;19.80;67.60
18365;DHT22;9309;52.126;11.616;2022-10-29T09:47:50;19.70;67.20
18365;DHT22;9309;52.126;11.616;2022-10-29T09:50:24;20.00;66.40
18365;DHT22;9309;52.126;11.616;2022-10-29T09:52:53;20.10;65.90
18365;DHT22;9309;52.126;11.616;2022-10-29T09:55:24;20.30;65.80
18365;DHT22;9309;52.126;11.616;2022-10-29T09:57:52;20.60;65.00
18365;DHT22;9309;52.126;11.616;2022-10-29T10:00:22;20.70;64.70
18365;DHT22;9309;52.126;11.616;2022-10-29T10:02:53;21.00;64.00
18365;DHT22;9309;52.126;11.616;2022-10-29T10:05:25;20.80;64.10
18365;DHT22;9309;52.126;11.616;2022-10-29T10:08:07;21.10;63.90
18365;DHT22;9309;52.126;11.616;2022-10-29T10:10:38;21.10;62.70
18365;DHT22;9309;52.126;11.616;2022-10-29T10:13:15;21.10;63.30
18365;DHT22;9309;52.126;11.616;2022-10-29T10:15:49;21.20;62.90
18365;DHT22;9309;52.126;11.616;2022-10-29T10:18:18;21.20;63.70
18365;DHT22;9309;52.126;11.616;2022-10-29T10:20:46;21.00;64.40
18365;DHT22;9309;52.126;11.616;2022-10-29T10:23:22;20.90;63.80
18365;DHT22;9309;52.126;11.616;2022-10-29T10:25:51;21.10;63.40
18365;DHT22;9309;52.126;11.616;2022-10-29T10:28:20;21.10;64.40
18365;DHT22;9309;52.126;11.616;2022-10-29T10:31:11;21.40;64.00
18365;DHT22;9309;52.126;11.616;2022-10-29T10:33:49;21.70;62.10
18365;DHT22;9309;52.126;11.616;2022-10-29T10:36:17;21.50;63.20
18365;DHT22;9309;52.126;11.616;2022-10-29T10:38:48;21.20;63.90
18365;DHT22;9309;52.126;11.616;2022-10-29T10:41:22;21.10;64.30
18365;DHT22;9309;52.126;11.616;2022-10-29T10:43:50;21.00;64.20
18365;DHT22;9309;52.126;11.616;2022-10-29T10:46:22;20.90;64.60
18365;DHT22;9309;52.126;11.616;2022-10-29T10:48:59;21.00;64.80
18365;DHT22;9309;52.126;11.616;2022-10-29T10:51:30;20.80;65.70
18365;DHT22;9309;52.126;11.616;2022-10-29T10:53:58;21.20;64.80
18365;DHT22;9309;52.126;11.616;2022-10-29T10:56:28;21.60;63.20
18365;DHT22;9309;52.126;11.616;2022-10-29T10:59:00;21.90;62.30
18365;DHT22;9309;52.126;11.616;2022-10-29T11:01:30;21.80;62.40
18365;DHT22;9309;52.126;11.616;2022-10-29T11:04:03;21.70;61.60
18365;DHT22;9309;52.126;11.616;2022-10-29T11:06:32;21.50;63.40
18365;DHT22;9309;52.126;11.616;2022-10-29T11:09:06;21.50;62.90
18365;DHT22;9309;52.126;11.616;2022-10-29T11:11:40;21.40;63.20
18365;DHT22;9309;52.126;11.616;2022-10-29T11:14:12;21.20;63.50
18365;DHT22;9309;52.126;11.616;2022-10-29T11:16:44;21.20;63.60
18365;DHT22;9309;52.126;11.616;2022-10-29T11:19:18;21.00;63.50
18365;DHT22;9309;52.126;11.616;2022-10-29T11:21:55;20.80;64.70
18365;DHT22;9309;52.126;11.616;2022-10-29T11:24:29;20.80;64.70
18365;DHT22;9309;52.126;11.616;2022-10-29T11:27:03;21.00;64.20
18365;DHT22;9309;52.126;11.616;2022-10-29T11:29:37;21.10;64.30
18365;DHT22;9309;52.126;11.616;2022-10-29T11:32:12;21.10;64.10
18365;DHT22;9309;52.126;11.616;2022-10-29T11:34:46;21.20;63.70
18365;DHT22;9309;52.126;11.616;2022-10-29T11:37:20;21.30;63.10
18365;DHT22;9309;52.126;11.616;2022-10-29T11:39:51;21.10;64.30
18365;DHT22;9309;52.126;11.616;2022-10-29T11:42:21;21.60;63.10
18365;DHT22;9309;52.126;11.616;2022-10-29T11:44:48;21.70;63.00
18365;DHT22;9309;52.126;11.616;2022-10-29T11:47:30;21.70;62.60
18365;DHT22;9309;52.126;11.616;2022-10-29T11:50:10;21.50;64.00
18365;DHT22;9309;52.126;11.616;2022-10-29T11:52:46;21.60;63.50
18365;DHT22;9309;52.126;11.616;2022-10-29T11:55:22;21.70;63.20
18365;DHT22;9309;52.126;11.616;2022-10-29T11:57:57;21.60;63.70
18365;DHT22;9309;52.126;11.616;2022-10-29T12:00:26;21.80;63.00
18365;DHT22;9309;52.126;11.616;2022-10-29T12:03:27;21.70;62.90
18365;DHT22;9309;52.126;11.616;2022-10-29T12:06:07;21.70;62.80
18365;DHT22;9309;52.126;11.616;2022-10-29T12:11:26;21.50;63.70
18365;DHT22;9309;52.126;11.616;2022-10-29T12:14:10;21.60;63.70
18365;DHT22;9309;52.126;11.616;2022-10-29T12:16:47;21.70;63.70
18365;DHT22;9309;52.126;11.616;2022-10-29T12:19:27;21.70;63.20
18365;DHT22;9309;52.126;11.616;2022-10-29T12:22:00;21.70;64.20
18365;DHT22;9309;52.126;11.616;2022-10-29T12:24:41;21.90;62.40
18365;DHT22;9309;52.126;11.616;2022-10-29T12:27:16;21.60;64.10
18365;DHT22;9309;52.126;11.616;2022-10-29T12:29:52;22.10;62.50
18365;DHT22;9309;52.126;11.616;2022-10-29T12:32:23;22.60;60.50
18365;DHT22;9309;52.126;11.616;2022-10-29T12:34:57;22.90;59.50
18365;DHT22;9309;52.126;11.616;2022-10-29T12:37:33;22.50;60.70
18365;DHT22;9309;52.126;11.616;2022-10-29T12:40:08;22.40;61.00
18365;DHT22;9309;52.126;11.616;2022-10-29T12:42:39;22.10;61.60
18365;DHT22;9309;52.126;11.616;2022-10-29T12:45:21;22.20;61.10
18365;DHT22;9309;52.126;11.616;2022-10-29T12:47:53;22.10;61.40
18365;DHT22;9309;52.126;11.616;2022-10-29T12:50:32;22.70;59.90
18365;DHT22;9309;52.126;11.616;2022-10-29T12:53:05;22.20;60.80
18365;DHT22;9309;52.126;11.616;2022-10-29T12:55:38;22.40;60.20
18365;DHT22;9309;52.126;11.616;2022-10-29T12:58:47;22.80;59.40
18365;DHT22;9309;52.126;11.616;2022-10-29T13:01:44;23.40;58.10
18365;DHT22;9309;52.126;11.616;2022-10-29T13:04:25;23.20;58.00
18365;DHT22;9309;52.126;11.616;2022-10-29T13:07:01;23.40;58.20
18365;DHT22;9309;52.126;11.616;2022-10-29T13:09:30;23.60;57.20
18365;DHT22;9309;52.126;11.616;2022-10-29T13:12:00;23.50;56.90
18365;DHT22;9309;52.126;11.616;2022-10-29T13:14:34;23.40;57.70
18365;DHT22;9309;52.126;11.616;2022-10-29T13:17:05;22.70;59.00
18365;DHT22;9309;52.126;11.616;2022-10-29T13:19:51;22.30;60.70
18365;DHT22;9309;52.126;11.616;2022-10-29T13:22:51;22.60;60.20
18365;DHT22;9309;52.126;11.616;2022-10-29T13:25:42;22.90;59.20
18365;DHT22;9309;52.126;11.616;2022-10-29T13:28:50;23.20;58.60
18365;DHT22;9309;52.126;11.616;2022-10-29T13:31:45;23.10;58.90
18365;DHT22;9309;52.126;11.616;2022-10-29T13:37:48;21.80;63.30
18365;DHT22;9309;52.126;11.616;2022-10-29T13:40:55;21.90;63.20
18365;DHT22;9309;52.126;11.616;2022-10-29T13:43:30;21.90;63.30
18365;DHT22;9309;52.126;11.616;2022-10-29T13:49:11;21.00;67.00
18365;DHT22;9309;52.126;11.616;2022-10-29T13:51:43;21.40;66.50
18365;DHT22;9309;52.126;11.616;2022-10-29T13:54:29;22.60;62.20
18365;DHT22;9309;52.126;11.616;2022-10-29T13:56:59;23.00;60.10
18365;DHT22;9309;52.126;11.616;2022-10-29T13:59:37;23.40;59.00
18365;DHT22;9309;52.126;11.616;2022-10-29T14:02:19;22.80;60.30
18365;DHT22;9309;52.126;11.616;2022-10-29T14:04:49;21.80;63.80
18365;DHT22;9309;52.126;11.616;2022-10-29T14:07:22;21.50;65.40
18365;DHT22;9309;52.126;11.616;2022-10-29T14:09:53;21.30;66.00
18365;DHT22;9309;52.126;11.616;2022-10-29T14:12:24;21.20;66.50
18365;DHT22;9309;52.126;11.616;2022-10-29T14:14:59;21.00;67.40
18365;DHT22;9309;52.126;11.616;2022-10-29T14:17:28;21.00;67.30
18365;DHT22;9309;52.126;11.616;2022-10-29T14:19:54;20.80;68.20
18365;DHT22;9309;52.126;11.616;2022-10-29T14:22:35;20.50;69.10
18365;DHT22;9309;52.126;11.616;2022-10-29T14:25:25;20.40;69.40
18365;DHT22;9309;52.126;11.616;2022-10-29T14:28:23;20.30;70.50
18365;DHT22;9309;52.126;11.616;2022-10-29T14:31:02;20.30;70.50
18365;DHT22;9309;52.126;11.616;2022-10-29T14:33:32;20.20;70.80
18365;DHT22;9309;52.126;11.616;2022-10-29T14:36:15;20.00;71.40
18365;DHT22;9309;52.126;11.616;2022-10-29T14:38:49;20.20;70.80
18365;DHT22;9309;52.126;11.616;2022-10-29T14:41:19;20.20;70.80
18365;DHT22;9309;52.126;11.616;2022-10-29T14:43:52;19.90;72.10
18365;DHT22;9309;52.126;11.616;2022-10-29T14:46:25;20.00;71.60
18365;DHT22;9309;52.126;11.616;2022-10-29T14:49:02;20.10;71.20
18365;DHT22;9309;52.126;11.616;2022-10-29T14:51:37;20.10;71.20
18365;DHT22;9309;52.126;11.616;2022-10-29T14:54:07;20.10;71.50
18365;DHT22;9309;52.126;11.616;2022-10-29T14:56:39;20.10;71.60
18365;DHT22;9309;52.126;11.616;2022-10-29T14:59:12;20.00;71.90
18365;DHT22;9309;52.126;11.616;2022-10-29T15:01:46;20.00;71.70
18365;DHT22;9309;52.126;11.616;2022-10-29T15:04:19;20.00;71.70
18365;DHT22;9309;52.126;11.616;2022-10-29T15:06:46;19.80;72.50
18365;DHT22;9309;52.126;11.616;2022-10-29T15:09:16;19.70;72.90
18365;DHT22;9309;52.126;11.616;2022-10-29T15:12:01;19.40;74.00
18365;DHT22;9309;52.126;11.616;2022-10-29T15:14:35;19.40;74.30
18365;DHT22;9309;52.126;11.616;2022-10-29T15:17:10;19.20;75.20
18365;DHT22;9309;52.126;11.616;2022-10-29T15:19:42;19.20;74.90
18365;DHT22;9309;52.126;11.616;2022-10-29T15:22:18;19.20;75.10
18365;DHT22;9309;52.126;11.616;2022-10-29T15:24:49;19.00;75.90
18365;DHT22;9309;52.126;11.616;2022-10-29T15:27:22;19.00;75.90
18365;DHT22;9309;52.126;11.616;2022-10-29T15:29:54;18.90;76.40
18365;DHT22;9309;52.126;11.616;2022-10-29T15:32:25;18.90;76.40
18365;DHT22;9309;52.126;11.616;2022-10-29T15:35:08;18.80;76.20
18365;DHT22;9309;52.126;11.616;2022-10-29T15:37:42;18.80;76.40
18365;DHT22;9309;52.126;11.616;2022-10-29T15:40:13;18.70;76.40
18365;DHT22;9309;52.126;11.616;2022-10-29T15:42:43;18.70;76.30
18365;DHT22;9309;52.126;11.616;2022-10-29T15:45:32;18.60;76.60
18365;DHT22;9309;52.126;11.616;2022-10-29T15:48:26;18.50;77.40
18365;DHT22;9309;52.126;11.616;2022-10-29T15:50:54;18.30;78.00
18365;DHT22;9309;52.126;11.616;2022-10-29T15:53:22;18.20;78.70
18365;DHT22;9309;52.126;11.616;2022-10-29T15:55:50;18.10;78.90
18365;DHT22;9309;52.126;11.616;2022-10-29T15:58:21;18.10;79.20
18365;DHT22;9309;52.126;11.616;2022-10-29T16:00:49;18.00;79.50
18365;DHT22;9309;52.126;11.616;2022-10-29T16:03:17;17.90;79.60
18365;DHT22;9309;52.126;11.616;2022-10-29T16:05:46;17.90;79.70
18365;DHT22;9309;52.126;11.616;2022-10-29T16:08:19;17.80;80.70
18365;DHT22;9309;52.126;11.616;2022-10-29T16:10:48;17.70;81.30
18365;DHT22;9309;52.126;11.616;2022-10-29T16:13:16;17.60;81.30
18365;DHT22;9309;52.126;11.616;2022-10-29T16:15:44;17.80;80.50